sensor_id;sensor_type;location;lat;lon;timestamp;temperature;humidity
26270;DHT22;15937;50.612;6.656;2022-11-18T00:00:40;7.90;99.90
26270;DHT22;15937;50.612;6.656;2022-11-18T00:04:42;7.90;99.90
26270;DHT22;15937;50.612;6.656;2022-11-18T00:08:44;7.70;99.90
26270;DHT22;15937;50.612;6.656;2022-11-18T00:12:45;7.70;99.90
26270;DHT22;15937;50.612;6.656;2022-11-18T00:17:06;7.60;99.90
26270;DHT22;15937;50.612;6.656;2022-11-18T00:21:09;7.60;99.90
26270;DHT22;15937;50.612;6.656;2022-11-18T00:25:11;7.70;99.90
26270;DHT22;15937;50.612;6.656;2022-11-18T00:29:13;7.70;99.90
26270;DHT22;15937;50.612;6.656;2022-11-18T00:33:15;7.70;99.90
26270;DHT22;15937;50.612;6.656;2022-11-18T00:37:17;7.70;99.90
26270;DHT22;15937;50.612;6.656;2022-11-18T00:41:19;7.60;99.90
26270;DHT22;15937;50.612;6.656;2022-11-18T00:45:21;7.70;99.90
26270;DHT22;15937;50.612;6.656;2022-11-18T00:49:23;7.60;99.90
26270;DHT22;15937;50.612;6.656;2022-11-18T00:53:25;7.70;99.90
26270;DHT22;15937;50.612;6.656;2022-11-18T00:57:27;7.60;99.90
26270;DHT22;15937;50.612;6.656;2022-11-18T01:01:29;7.60;99.90
26270;DHT22;15937;50.612;6.656;2022-11-18T01:05:31;7.70;99.90
26270;DHT22;15937;50.612;6.656;2022-11-18T01:09:32;7.60;99.90
26270;DHT22;15937;50.612;6.656;2022-11-18T01:13:34;7.60;99.90
26270;DHT22;15937;50.612;6.656;2022-11-18T01:17:36;7.50;99.90
26270;DHT22;15937;50.612;6.656;2022-11-18T01:21:37;7.40;99.90
26270;DHT22;15937;50.612;6.656;2022-11-18T01:25:39;7.40;99.90
26270;DHT22;15937;50.612;6.656;2022-11-18T01:29:41;7.30;99.90
26270;DHT22;15937;50.612;6.656;2022-11-18T01:33:43;7.30;99.90
26270;DHT22;15937;50.612;6.656;2022-11-18T01:37:46;7.30;99.90
26270;DHT22;15937;50.612;6.656;2022-11-18T01:41:47;7.40;99.90
26270;DHT22;15937;50.612;6.656;2022-11-18T01:45:50;7.40;99.90
26270;DHT22;15937;50.612;6.656;2022-11-18T01:49:51;7.40;99.90
26270;DHT22;15937;50.612;6.656;2022-11-18T01:53:56;7.40;99.90
26270;DHT22;15937;50.612;6.656;2022-11-18T01:58:02;7.50;99.90
26270;DHT22;15937;50.612;6.656;2022-11-18T02:02:08;7.60;99.90
26270;DHT22;15937;50.612;6.656;2022-11-18T02:06:14;7.70;99.90
26270;DHT22;15937;50.612;6.656;2022-11-18T02:10:18;7.70;99.90
26270;DHT22;15937;50.612;6.656;2022-11-18T02:14:21;7.70;99.90
26270;DHT22;15937;50.612;6.656;2022-11-18T02:30:53;7.90;99.90
26270;DHT22;15937;50.612;6.656;2022-11-18T02:35:04;8.00;99.90
26270;DHT22;15937;50.612;6.656;2022-11-18T02:39:08;8.10;99.90
26270;DHT22;15937;50.612;6.656;2022-11-18T02:43:18;8.10;99.90
26270;DHT22;15937;50.612;6.656;2022-11-18T02:47:21;8.20;99.90
26270;DHT22;15937;50.612;6.656;2022-11-18T02:51:26;8.30;99.90
26270;DHT22;15937;50.612;6.656;2022-11-18T02:55:29;8.30;99.90
26270;DHT22;15937;50.612;6.656;2022-11-18T02:59:31;8.30;99.90
26270;DHT22;15937;50.612;6.656;2022-11-18T03:03:34;8.40;99.90
26270;DHT22;15937;50.612;6.656;2022-11-18T03:07:36;8.40;99.90
26270;DHT22;15937;50.612;6.656;2022-11-18T03:11:48;8.40;99.90
26270;DHT22;15937;50.612;6.656;2022-11-18T03:15:54;8.50;99.90
26270;DHT22;15937;50.612;6.656;2022-11-18T03:32:28;8.60;99.90
26270;DHT22;15937;50.612;6.656;2022-11-18T03:36:32;8.60;99.90
26270;DHT22;15937;50.612;6.656;2022-11-18T03:40:37;8.70;99.90
26270;DHT22;15937;50.612;6.656;2022-11-18T03:44:41;8.60;99.90
26270;DHT22;15937;50.612;6.656;2022-11-18T03:48:53;8.70;99.90
26270;DHT22;15937;50.612;6.656;2022-11-18T03:52:55;8.70;99.90
26270;DHT22;15937;50.612;6.656;2022-11-18T03:57:11;8.70;99.90
26270;DHT22;15937;50.612;6.656;2022-11-18T04:01:15;8.70;99.90
26270;DHT22;15937;50.612;6.656;2022-11-18T04:05:18;8.70;99.90
26270;DHT22;15937;50.612;6.656;2022-11-18T04:09:22;8.80;99.90
26270;DHT22;15937;50.612;6.656;2022-11-18T04:13:34;8.80;99.90
26270;DHT22;15937;50.612;6.656;2022-11-18T04:17:37;8.80;99.90
26270;DHT22;15937;50.612;6.656;2022-11-18T04:21:40;8.90;99.90
26270;DHT22;15937;50.612;6.656;2022-11-18T04:25:42;8.90;99.90
26270;DHT22;15937;50.612;6.656;2022-11-18T04:29:44;8.90;99.90
26270;DHT22;15937;50.612;6.656;2022-11-18T04:33:46;8.90;99.90
26270;DHT22;15937;50.612;6.656;2022-11-18T04:37:47;8.80;99.90
26270;DHT22;15937;50.612;6.656;2022-11-18T04:41:49;8.70;99.90
26270;DHT22;15937;50.612;6.656;2022-11-18T04:45:57;8.70;99.90
26270;DHT22;15937;50.612;6.656;2022-11-18T04:49:59;8.70;99.90
26270;DHT22;15937;50.612;6.656;2022-11-18T04:54:01;8.70;99.90
26270;DHT22;15937;50.612;6.656;2022-11-18T04:58:03;8.70;99.90
26270;DHT22;15937;50.612;6.656;2022-11-18T05:02:05;8.70;99.90
26270;DHT22;15937;50.612;6.656;2022-11-18T05:06:09;8.70;99.90
26270;DHT22;15937;50.612;6.656;2022-11-18T05:10:11;8.60;99.90
26270;DHT22;15937;50.612;6.656;2022-11-18T05:14:13;8.60;99.90
26270;DHT22;15937;50.612;6.656;2022-11-18T05:18:15;8.60;99.90
26270;DHT22;15937;50.612;6.656;2022-11-18T05:22:17;8.60;99.90
26270;DHT22;15937;50.612;6.656;2022-11-18T05:26:19;8.60;99.90
26270;DHT22;15937;50.612;6.656;2022-11-18T05:30:21;8.60;99.90
26270;DHT22;15937;50.612;6.656;2022-11-18T05:34:23;8.60;99.90
26270;DHT22;15937;50.612;6.656;2022-11-18T05:38:24;8.60;99.90
26270;DHT22;15937;50.612;6.656;2022-11-18T05:42:26;8.70;99.90
26270;DHT22;15937;50.612;6.656;2022-11-18T05:46:47;8.60;99.90
26270;DHT22;15937;50.612;6.656;2022-11-18T05:50:50;8.60;99.90
26270;DHT22;15937;50.612;6.656;2022-11-18T05:54:52;8.60;99.90
26270;DHT22;15937;50.612;6.656;2022-11-18T05:58:54;8.70;99.90
26270;DHT22;15937;50.612;6.656;2022-11-18T06:02:56;8.70;99.90
26270;DHT22;15937;50.612;6.656;2022-11-18T06:07:02;8.70;99.90
26270;DHT22;15937;50.612;6.656;2022-11-18T06:11:05;8.70;99.90
26270;DHT22;15937;50.612;6.656;2022-11-18T06:15:09;8.80;99.90
26270;DHT22;15937;50.612;6.656;2022-11-18T06:19:12;8.80;99.90
26270;DHT22;15937;50.612;6.656;2022-11-18T06:23:14;8.80;99.90
26270;DHT22;15937;50.612;6.656;2022-11-18T06:27:19;8.80;99.90
26270;DHT22;15937;50.612;6.656;2022-11-18T06:31:27;8.80;99.90
26270;DHT22;15937;50.612;6.656;2022-11-18T06:35:38;8.80;99.90
26270;DHT22;15937;50.612;6.656;2022-11-18T06:39:40;8.90;99.90
26270;DHT22;15937;50.612;6.656;2022-11-18T06:43:50;8.90;99.90
26270;DHT22;15937;50.612;6.656;2022-11-18T06:47:58;8.90;99.90
26270;DHT22;15937;50.612;6.656;2022-11-18T06:52:04;8.90;99.90
26270;DHT22;15937;50.612;6.656;2022-11-18T06:56:08;8.90;99.90
26270;DHT22;15937;50.612;6.656;2022-11-18T07:00:10;8.90;99.90
26270;DHT22;15937;50.612;6.656;2022-11-18T07:04:39;8.80;99.90
26270;DHT22;15937;50.612;6.656;2022-11-18T07:09:01;8.90;99.90
26270;DHT22;15937;50.612;6.656;2022-11-18T07:13:40;8.80;99.90
26270;DHT22;15937;50.612;6.656;2022-11-18T07:18:09;8.80;99.90
26270;DHT22;15937;50.612;6.656;2022-11-18T07:22:10;8.90;99.90
26270;DHT22;15937;50.612;6.656;2022-11-18T07:26:15;8.90;99.90
26270;DHT22;15937;50.612;6.656;2022-11-18T07:30:16;8.90;99.90
26270;DHT22;15937;50.612;6.656;2022-11-18T07:34:26;8.90;99.90
26270;DHT22;15937;50.612;6.656;2022-11-18T07:38:48;8.90;99.90
26270;DHT22;15937;50.612;6.656;2022-11-18T07:42:50;8.90;99.90
26270;DHT22;15937;50.612;6.656;2022-11-18T07:46:52;9.00;99.90
26270;DHT22;15937;50.612;6.656;2022-11-18T07:50:54;9.00;99.90
26270;DHT22;15937;50.612;6.656;2022-11-18T07:55:00;9.00;99.90
26270;DHT22;15937;50.612;6.656;2022-11-18T07:59:06;9.00;99.90
26270;DHT22;15937;50.612;6.656;2022-11-18T08:03:09;9.00;99.90
26270;DHT22;15937;50.612;6.656;2022-11-18T08:07:15;9.00;99.90
26270;DHT22;15937;50.612;6.656;2022-11-18T08:11:21;8.90;99.90
26270;DHT22;15937;50.612;6.656;2022-11-18T08:15:28;8.90;99.90
26270;DHT22;15937;50.612;6.656;2022-11-18T08:20:00;8.90;99.90
26270;DHT22;15937;50.612;6.656;2022-11-18T17:29:19;9.30;99.90
26270;DHT22;15937;50.612;6.656;2022-11-18T17:38:14;9.30;99.90
26270;DHT22;15937;50.612;6.656;2022-11-18T17:47:23;9.30;99.90
26270;DHT22;15937;50.612;6.656;2022-11-18T17:52:13;9.30;99.90
26270;DHT22;15937;50.612;6.656;2022-11-18T17:56:48;9.30;99.90
26270;DHT22;15937;50.612;6.656;2022-11-18T18:22:00;9.20;99.90
26270;DHT22;15937;50.612;6.656;2022-11-18T18:31:28;9.10;99.90
26270;DHT22;15937;50.612;6.656;2022-11-18T18:35:36;9.10;99.90
26270;DHT22;15937;50.612;6.656;2022-11-18T18:48:42;9.10;99.90
26270;DHT22;15937;50.612;6.656;2022-11-18T18:53:34;9.10;99.90
26270;DHT22;15937;50.612;6.656;2022-11-18T19:12:19;8.90;99.90
26270;DHT22;15937;50.612;6.656;2022-11-18T19:17:12;9.00;99.90
26270;DHT22;15937;50.612;6.656;2022-11-18T19:26:14;8.90;99.90
26270;DHT22;15937;50.612;6.656;2022-11-18T19:30:26;9.00;99.90
26270;DHT22;15937;50.612;6.656;2022-11-18T19:35:03;8.90;99.90
26270;DHT22;15937;50.612;6.656;2022-11-18T19:39:57;8.90;99.90
26270;DHT22;15937;50.612;6.656;2022-11-18T19:44:17;8.90;99.90
26270;DHT22;15937;50.612;6.656;2022-11-18T19:49:01;8.90;99.90
26270;DHT22;15937;50.612;6.656;2022-11-18T19:58:16;8.80;99.90
26270;DHT22;15937;50.612;6.656;2022-11-18T22:06:47;8.70;99.90
26270;DHT22;15937;50.612;6.656;2022-11-18T22:19:27;8.70;99.90
26270;DHT22;15937;50.612;6.656;2022-11-18T22:23:30;8.70;99.90
26270;DHT22;15937;50.612;6.656;2022-11-18T22:27:32;8.60;99.90
26270;DHT22;15937;50.612;6.656;2022-11-18T22:31:34;8.60;99.90
26270;DHT22;15937;50.612;6.656;2022-11-18T22:35:36;8.60;99.90
26270;DHT22;15937;50.612;6.656;2022-11-18T22:43:55;8.50;99.90
26270;DHT22;15937;50.612;6.656;2022-11-18T22:47:57;8.50;99.90
26270;DHT22;15937;50.612;6.656;2022-11-18T22:56:21;8.50;99.90
26270;DHT22;15937;50.612;6.656;2022-11-18T23:00:25;8.40;99.90
26270;DHT22;15937;50.612;6.656;2022-11-18T23:04:38;8.50;99.90
26270;DHT22;15937;50.612;6.656;2022-11-18T23:08:55;8.50;99.90
26270;DHT22;15937;50.612;6.656;2022-11-18T23:13:00;8.40;99.90
26270;DHT22;15937;50.612;6.656;2022-11-18T23:17:28;8.40;99.90
26270;DHT22;15937;50.612;6.656;2022-11-18T23:21:34;8.50;99.90
26270;DHT22;15937;50.612;6.656;2022-11-18T23:25:36;8.40;99.90
26270;DHT22;15937;50.612;6.656;2022-11-18T23:29:43;8.40;99.90
26270;DHT22;15937;50.612;6.656;2022-11-18T23:33:51;8.40;99.90
26270;DHT22;15937;50.612;6.656;2022-11-18T23:37:53;8.40;99.90
26270;DHT22;15937;50.612;6.656;2022-11-18T23:41:55;8.40;99.90
26270;DHT22;15937;50.612;6.656;2022-11-18T23:46:00;8.50;99.90
26270;DHT22;15937;50.612;6.656;2022-11-18T23:50:02;8.40;99.90
26270;DHT22;15937;50.612;6.656;2022-11-18T23:54:07;8.30;99.90
26270;DHT22;15937;50.612;6.656;2022-11-18T23:58:09;8.30;99.90
